sensor_id;sensor_type;location;lat;lon;timestamp;pressure;altitude;pressure_sealevel;temperature;humidity
16461;BME280;8341;42.048;24.650;2022-09-17T00:00:33;96294.22;;;22.10;65.05
16461;BME280;8341;42.048;24.650;2022-09-17T00:03:01;96303.28;;;22.11;63.73
16461;BME280;8341;42.048;24.650;2022-09-17T00:05:28;96301.34;;;22.21;62.88
16461;BME280;8341;42.048;24.650;2022-09-17T00:07:55;96285.97;;;21.86;64.35
16461;BME280;8341;42.048;24.650;2022-09-17T00:10:22;96280.81;;;21.82;65.02
16461;BME280;8341;42.048;24.650;2022-09-17T00:12:50;96275.66;;;21.61;65.87
16461;BME280;8341;42.048;24.650;2022-09-17T00:15:17;96279.00;;;21.77;65.46
16461;BME280;8341;42.048;24.650;2022-09-17T00:17:43;96294.69;;;21.82;65.16
16461;BME280;8341;42.048;24.650;2022-09-17T00:20:12;96292.66;;;21.82;64.45
16461;BME280;8341;42.048;24.650;2022-09-17T00:22:38;96297.47;;;21.82;64.10
16461;BME280;8341;42.048;24.650;2022-09-17T00:25:06;96285.97;;;21.86;64.71
16461;BME280;8341;42.048;24.650;2022-09-17T00:27:33;96297.56;;;21.92;67.15
16461;BME280;8341;42.048;24.650;2022-09-17T00:30:01;96291.25;;;21.74;67.55
16461;BME280;8341;42.048;24.650;2022-09-17T00:32:27;96285.16;;;21.51;67.17
16461;BME280;8341;42.048;24.650;2022-09-17T00:34:55;96302.75;;;21.70;67.94
16461;BME280;8341;42.048;24.650;2022-09-17T00:37:23;96313.84;;;21.70;67.73
16461;BME280;8341;42.048;24.650;2022-09-17T00:39:50;96320.28;;;21.73;68.30
16461;BME280;8341;42.048;24.650;2022-09-17T00:42:18;96309.25;;;21.65;67.59
16461;BME280;8341;42.048;24.650;2022-09-17T00:44:48;96317.59;;;21.65;66.33
16461;BME280;8341;42.048;24.650;2022-09-17T00:47:22;96316.34;;;21.59;67.15
16461;BME280;8341;42.048;24.650;2022-09-17T00:49:52;96316.50;;;21.44;67.91
16461;BME280;8341;42.048;24.650;2022-09-17T00:52:24;96311.50;;;21.42;67.51
16461;BME280;8341;42.048;24.650;2022-09-17T00:54:57;96312.31;;;21.35;66.74
16461;BME280;8341;42.048;24.650;2022-09-17T00:57:26;96305.78;;;21.40;66.89
16461;BME280;8341;42.048;24.650;2022-09-17T00:59:54;96320.94;;;21.39;70.24
16461;BME280;8341;42.048;24.650;2022-09-17T01:02:21;96301.09;;;21.26;69.64
16461;BME280;8341;42.048;24.650;2022-09-17T01:04:48;96302.22;;;21.23;69.27
16461;BME280;8341;42.048;24.650;2022-09-17T01:10:09;96297.94;;;20.97;67.97
16461;BME280;8341;42.048;24.650;2022-09-17T01:12:53;96296.94;;;20.85;68.13
16461;BME280;8341;42.048;24.650;2022-09-17T01:15:27;96294.91;;;20.78;68.80
16461;BME280;8341;42.048;24.650;2022-09-17T01:18:18;96301.78;;;21.01;70.64
16461;BME280;8341;42.048;24.650;2022-09-17T01:21:13;96300.34;;;21.00;70.85
16461;BME280;8341;42.048;24.650;2022-09-17T01:29:49;96292.78;;;20.69;68.67
16461;BME280;8341;42.048;24.650;2022-09-17T01:32:25;96291.69;;;20.64;68.90
16461;BME280;8341;42.048;24.650;2022-09-17T01:35:00;96299.34;;;20.81;72.12
16461;BME280;8341;42.048;24.650;2022-09-17T01:37:30;96298.59;;;20.80;71.09
16461;BME280;8341;42.048;24.650;2022-09-17T01:40:03;96293.09;;;20.73;70.81
16461;BME280;8341;42.048;24.650;2022-09-17T01:42:36;96306.75;;;20.78;71.24
16461;BME280;8341;42.048;24.650;2022-09-17T01:45:11;96299.97;;;20.72;69.17
16461;BME280;8341;42.048;24.650;2022-09-17T01:47:46;96289.38;;;20.78;68.07
16461;BME280;8341;42.048;24.650;2022-09-17T01:50:18;96305.25;;;20.85;67.22
16461;BME280;8341;42.048;24.650;2022-09-17T01:52:49;96298.78;;;20.82;67.74
16461;BME280;8341;42.048;24.650;2022-09-17T01:55:17;96284.56;;;20.78;67.49
16461;BME280;8341;42.048;24.650;2022-09-17T01:57:50;96279.81;;;20.71;69.79
16461;BME280;8341;42.048;24.650;2022-09-17T02:00:20;96281.06;;;20.78;69.33
16461;BME280;8341;42.048;24.650;2022-09-17T02:02:52;96278.28;;;20.78;68.09
16461;BME280;8341;42.048;24.650;2022-09-17T02:05:26;96286.69;;;20.95;68.13
16461;BME280;8341;42.048;24.650;2022-09-17T02:07:57;96279.66;;;20.94;68.41
16461;BME280;8341;42.048;24.650;2022-09-17T02:10:28;96262.19;;;20.84;67.44
16461;BME280;8341;42.048;24.650;2022-09-17T02:12:59;96285.16;;;21.01;69.43
16461;BME280;8341;42.048;24.650;2022-09-17T02:15:31;96277.97;;;20.98;68.06
16461;BME280;8341;42.048;24.650;2022-09-17T02:18:05;96267.91;;;20.86;68.84
16461;BME280;8341;42.048;24.650;2022-09-17T02:20:39;96280.47;;;20.87;69.81
16461;BME280;8341;42.048;24.650;2022-09-17T02:23:11;96266.81;;;20.81;69.60
16461;BME280;8341;42.048;24.650;2022-09-17T02:25:45;96266.34;;;20.68;70.80
16461;BME280;8341;42.048;24.650;2022-09-17T02:28:16;96261.63;;;20.53;69.25
16461;BME280;8341;42.048;24.650;2022-09-17T02:30:47;96259.13;;;20.72;68.55
16461;BME280;8341;42.048;24.650;2022-09-17T02:33:16;96246.16;;;20.82;66.84
16461;BME280;8341;42.048;24.650;2022-09-17T02:35:45;96237.19;;;20.67;67.42
16461;BME280;8341;42.048;24.650;2022-09-17T02:38:19;96235.88;;;20.68;66.74
16461;BME280;8341;42.048;24.650;2022-09-17T02:40:49;96241.41;;;20.68;66.45
16461;BME280;8341;42.048;24.650;2022-09-17T02:43:26;96234.22;;;20.72;66.25
16461;BME280;8341;42.048;24.650;2022-09-17T02:46:07;96230.53;;;20.70;69.22
16461;BME280;8341;42.048;24.650;2022-09-17T02:48:58;96233.97;;;20.78;69.19
16461;BME280;8341;42.048;24.650;2022-09-17T02:51:34;96225.84;;;20.80;69.82
16461;BME280;8341;42.048;24.650;2022-09-17T02:54:14;96228.84;;;20.74;69.40
16461;BME280;8341;42.048;24.650;2022-09-17T02:56:46;96219.09;;;20.66;69.20
16461;BME280;8341;42.048;24.650;2022-09-17T02:59:20;96215.19;;;20.69;68.58
16461;BME280;8341;42.048;24.650;2022-09-17T03:01:55;96218.22;;;20.55;67.61
16461;BME280;8341;42.048;24.650;2022-09-17T03:04:26;96222.97;;;20.63;69.82
16461;BME280;8341;42.048;24.650;2022-09-17T03:06:55;96228.06;;;20.49;70.19
16461;BME280;8341;42.048;24.650;2022-09-17T03:09:24;96215.47;;;20.23;70.12
16461;BME280;8341;42.048;24.650;2022-09-17T03:11:50;96209.16;;;20.30;71.22
16461;BME280;8341;42.048;24.650;2022-09-17T03:14:17;96197.56;;;20.24;71.45
16461;BME280;8341;42.048;24.650;2022-09-17T03:16:45;96197.78;;;20.11;71.82
16461;BME280;8341;42.048;24.650;2022-09-17T03:19:12;96207.41;;;20.03;71.45
16461;BME280;8341;42.048;24.650;2022-09-17T03:21:40;96207.91;;;20.16;68.30
16461;BME280;8341;42.048;24.650;2022-09-17T03:24:07;96199.53;;;20.31;71.58
16461;BME280;8341;42.048;24.650;2022-09-17T03:26:36;96198.19;;;20.40;72.34
16461;BME280;8341;42.048;24.650;2022-09-17T03:29:03;96204.81;;;20.44;71.91
16461;BME280;8341;42.048;24.650;2022-09-17T03:31:30;96182.41;;;20.25;71.93
16461;BME280;8341;42.048;24.650;2022-09-17T03:33:57;96171.19;;;20.23;71.25
16461;BME280;8341;42.048;24.650;2022-09-17T03:36:24;96175.19;;;20.30;70.93
16461;BME280;8341;42.048;24.650;2022-09-17T03:38:54;96155.84;;;20.22;71.01
16461;BME280;8341;42.048;24.650;2022-09-17T03:41:21;96164.13;;;20.22;70.44
16461;BME280;8341;42.048;24.650;2022-09-17T03:43:48;96149.81;;;20.09;69.65
16461;BME280;8341;42.048;24.650;2022-09-17T03:46:15;96153.84;;;20.15;68.70
16461;BME280;8341;42.048;24.650;2022-09-17T03:48:42;96157.53;;;20.18;70.18
16461;BME280;8341;42.048;24.650;2022-09-17T03:51:09;96147.78;;;20.09;70.41
16461;BME280;8341;42.048;24.650;2022-09-17T03:53:35;96159.38;;;20.15;72.34
16461;BME280;8341;42.048;24.650;2022-09-17T03:56:05;96145.53;;;20.15;72.29
16461;BME280;8341;42.048;24.650;2022-09-17T03:58:32;96142.09;;;20.07;72.37
16461;BME280;8341;42.048;24.650;2022-09-17T04:01:00;96164.56;;;20.11;70.71
16461;BME280;8341;42.048;24.650;2022-09-17T04:03:28;96162.81;;;19.91;72.04
16461;BME280;8341;42.048;24.650;2022-09-17T04:05:55;96133.75;;;19.75;72.52
16461;BME280;8341;42.048;24.650;2022-09-17T04:08:22;96161.31;;;19.97;74.58
16461;BME280;8341;42.048;24.650;2022-09-17T04:10:49;96166.03;;;20.12;74.31
16461;BME280;8341;42.048;24.650;2022-09-17T04:13:18;96159.44;;;20.08;73.21
16461;BME280;8341;42.048;24.650;2022-09-17T04:15:46;96164.63;;;19.96;73.47
16461;BME280;8341;42.048;24.650;2022-09-17T04:18:13;96157.03;;;19.64;74.87
16461;BME280;8341;42.048;24.650;2022-09-17T04:20:40;96148.47;;;19.85;75.68
16461;BME280;8341;42.048;24.650;2022-09-17T04:23:20;96143.09;;;19.87;74.48
16461;BME280;8341;42.048;24.650;2022-09-17T04:25:48;96136.53;;;20.07;75.27
16461;BME280;8341;42.048;24.650;2022-09-17T04:28:15;96139.56;;;19.94;73.51
16461;BME280;8341;42.048;24.650;2022-09-17T04:30:43;96134.19;;;19.96;72.21
16461;BME280;8341;42.048;24.650;2022-09-17T04:33:10;96127.94;;;19.95;73.65
16461;BME280;8341;42.048;24.650;2022-09-17T04:35:37;96125.16;;;19.95;75.33
16461;BME280;8341;42.048;24.650;2022-09-17T04:38:04;96143.84;;;19.80;77.42
16461;BME280;8341;42.048;24.650;2022-09-17T04:40:30;96156.44;;;20.13;76.11
16461;BME280;8341;42.048;24.650;2022-09-17T04:42:58;96160.59;;;19.27;77.39
16461;BME280;8341;42.048;24.650;2022-09-17T04:45:28;96172.91;;;19.64;77.37
16461;BME280;8341;42.048;24.650;2022-09-17T04:47:56;96161.50;;;19.52;76.93
16461;BME280;8341;42.048;24.650;2022-09-17T04:50:23;96166.00;;;19.80;78.60
16461;BME280;8341;42.048;24.650;2022-09-17T04:52:50;96157.84;;;19.89;76.80
16461;BME280;8341;42.048;24.650;2022-09-17T04:55:17;96162.75;;;20.06;76.92
16461;BME280;8341;42.048;24.650;2022-09-17T04:57:47;96161.38;;;19.90;74.04
16461;BME280;8341;42.048;24.650;2022-09-17T05:00:15;96168.19;;;19.89;74.35
16461;BME280;8341;42.048;24.650;2022-09-17T05:02:43;96164.13;;;19.90;76.33
16461;BME280;8341;42.048;24.650;2022-09-17T05:05:12;96155.00;;;19.65;77.30
16461;BME280;8341;42.048;24.650;2022-09-17T05:07:39;96169.47;;;19.88;76.73
16461;BME280;8341;42.048;24.650;2022-09-17T05:10:08;96163.84;;;20.03;75.57
16461;BME280;8341;42.048;24.650;2022-09-17T05:12:35;96167.25;;;20.26;76.44
16461;BME280;8341;42.048;24.650;2022-09-17T05:15:02;96158.31;;;20.43;76.46
16461;BME280;8341;42.048;24.650;2022-09-17T05:17:31;96162.25;;;20.57;75.63
16461;BME280;8341;42.048;24.650;2022-09-17T05:19:58;96158.81;;;20.74;73.96
16461;BME280;8341;42.048;24.650;2022-09-17T05:22:26;96164.44;;;20.66;71.66
16461;BME280;8341;42.048;24.650;2022-09-17T05:24:53;96172.50;;;20.96;71.70
16461;BME280;8341;42.048;24.650;2022-09-17T05:27:19;96174.19;;;21.16;70.48
16461;BME280;8341;42.048;24.650;2022-09-17T05:29:46;96180.31;;;21.32;70.31
16461;BME280;8341;42.048;24.650;2022-09-17T05:32:13;96185.63;;;21.38;69.10
16461;BME280;8341;42.048;24.650;2022-09-17T05:34:40;96197.88;;;21.52;70.39
16461;BME280;8341;42.048;24.650;2022-09-17T05:37:08;96198.59;;;21.52;70.28
16461;BME280;8341;42.048;24.650;2022-09-17T05:39:36;96196.16;;;21.73;70.57
16461;BME280;8341;42.048;24.650;2022-09-17T05:42:04;96201.22;;;21.84;70.80
16461;BME280;8341;42.048;24.650;2022-09-17T05:44:30;96213.16;;;21.95;70.24
16461;BME280;8341;42.048;24.650;2022-09-17T05:46:57;96219.19;;;22.01;68.77
16461;BME280;8341;42.048;24.650;2022-09-17T06:06:00;96232.81;;;22.50;66.36
16461;BME280;8341;42.048;24.650;2022-09-17T06:08:27;96231.19;;;22.74;64.89
16461;BME280;8341;42.048;24.650;2022-09-17T06:10:55;96234.06;;;22.93;64.55
16461;BME280;8341;42.048;24.650;2022-09-17T06:13:22;96247.63;;;23.16;64.48
16461;BME280;8341;42.048;24.650;2022-09-17T06:15:49;96248.53;;;23.28;64.79
16461;BME280;8341;42.048;24.650;2022-09-17T06:18:16;96255.47;;;23.46;63.97
16461;BME280;8341;42.048;24.650;2022-09-17T06:20:51;96261.66;;;23.44;63.11
16461;BME280;8341;42.048;24.650;2022-09-17T06:23:20;96278.50;;;23.56;64.02
16461;BME280;8341;42.048;24.650;2022-09-17T06:25:52;96271.16;;;23.51;64.53
16461;BME280;8341;42.048;24.650;2022-09-17T06:28:20;96260.94;;;23.63;64.43
16461;BME280;8341;42.048;24.650;2022-09-17T06:30:47;96254.06;;;23.74;63.96
16461;BME280;8341;42.048;24.650;2022-09-17T06:33:14;96262.13;;;23.89;62.69
16461;BME280;8341;42.048;24.650;2022-09-17T06:35:40;96275.19;;;23.96;62.86
16461;BME280;8341;42.048;24.650;2022-09-17T06:38:07;96275.06;;;24.03;63.36
16461;BME280;8341;42.048;24.650;2022-09-17T06:40:36;96289.38;;;23.71;63.05
16461;BME280;8341;42.048;24.650;2022-09-17T06:43:02;96296.47;;;23.45;66.84
16461;BME280;8341;42.048;24.650;2022-09-17T06:45:29;96298.69;;;23.47;65.59
16461;BME280;8341;42.048;24.650;2022-09-17T06:47:56;96289.47;;;23.54;65.09
16461;BME280;8341;42.048;24.650;2022-09-17T06:50:23;96272.38;;;23.67;62.28
16461;BME280;8341;42.048;24.650;2022-09-17T06:52:51;96271.38;;;24.01;61.26
16461;BME280;8341;42.048;24.650;2022-09-17T06:55:18;96254.53;;;24.27;60.82
16461;BME280;8341;42.048;24.650;2022-09-17T06:57:47;96263.13;;;24.60;60.32
16461;BME280;8341;42.048;24.650;2022-09-17T07:00:14;96265.28;;;24.91;58.51
16461;BME280;8341;42.048;24.650;2022-09-17T07:02:41;96260.03;;;25.16;58.83
16461;BME280;8341;42.048;24.650;2022-09-17T07:05:08;96260.81;;;25.47;57.19
16461;BME280;8341;42.048;24.650;2022-09-17T07:07:35;96266.88;;;25.65;56.91
16461;BME280;8341;42.048;24.650;2022-09-17T07:10:02;96262.19;;;25.79;56.62
16461;BME280;8341;42.048;24.650;2022-09-17T07:12:29;96253.63;;;25.65;54.85
16461;BME280;8341;42.048;24.650;2022-09-17T07:14:57;96259.41;;;25.58;54.60
16461;BME280;8341;42.048;24.650;2022-09-17T07:17:24;96259.28;;;25.77;55.43
16461;BME280;8341;42.048;24.650;2022-09-17T07:19:50;96246.31;;;25.60;54.28
16461;BME280;8341;42.048;24.650;2022-09-17T07:22:17;96246.31;;;25.60;54.30
16461;BME280;8341;42.048;24.650;2022-09-17T07:24:44;96239.00;;;25.76;54.14
16461;BME280;8341;42.048;24.650;2022-09-17T07:27:11;96234.94;;;25.89;54.66
16461;BME280;8341;42.048;24.650;2022-09-17T07:29:38;96223.00;;;26.09;53.70
16461;BME280;8341;42.048;24.650;2022-09-17T07:32:07;96233.78;;;26.25;52.97
16461;BME280;8341;42.048;24.650;2022-09-17T07:34:33;96236.50;;;26.34;53.05
16461;BME280;8341;42.048;24.650;2022-09-17T07:37:00;96241.63;;;26.49;52.46
16461;BME280;8341;42.048;24.650;2022-09-17T07:39:27;96226.09;;;26.58;52.56
16461;BME280;8341;42.048;24.650;2022-09-17T07:41:54;96222.94;;;26.63;51.62
16461;BME280;8341;42.048;24.650;2022-09-17T07:44:21;96222.47;;;26.67;51.16
16461;BME280;8341;42.048;24.650;2022-09-17T07:46:47;96223.16;;;26.56;50.99
16461;BME280;8341;42.048;24.650;2022-09-17T07:49:16;96232.03;;;26.52;51.48
16461;BME280;8341;42.048;24.650;2022-09-17T07:51:42;96242.63;;;26.54;50.31
16461;BME280;8341;42.048;24.650;2022-09-17T07:54:09;96230.28;;;26.03;53.45
16461;BME280;8341;42.048;24.650;2022-09-17T07:56:36;96219.78;;;25.49;55.40
16461;BME280;8341;42.048;24.650;2022-09-17T07:59:03;96214.75;;;25.58;55.47
16461;BME280;8341;42.048;24.650;2022-09-17T08:01:31;96230.34;;;25.51;54.97
16461;BME280;8341;42.048;24.650;2022-09-17T08:03:58;96233.00;;;25.49;55.71
16461;BME280;8341;42.048;24.650;2022-09-17T08:06:27;96233.94;;;25.32;56.43
16461;BME280;8341;42.048;24.650;2022-09-17T08:08:54;96229.50;;;25.48;56.32
16461;BME280;8341;42.048;24.650;2022-09-17T08:11:23;96221.91;;;25.82;56.07
16461;BME280;8341;42.048;24.650;2022-09-17T08:13:51;96224.03;;;25.93;55.37
16461;BME280;8341;42.048;24.650;2022-09-17T08:16:20;96227.25;;;26.10;53.53
16461;BME280;8341;42.048;24.650;2022-09-17T08:18:48;96228.41;;;26.17;54.69
16461;BME280;8341;42.048;24.650;2022-09-17T08:21:16;96235.69;;;26.22;54.88
16461;BME280;8341;42.048;24.650;2022-09-17T08:23:45;96238.16;;;26.28;55.83
16461;BME280;8341;42.048;24.650;2022-09-17T08:26:14;96242.78;;;26.23;55.18
16461;BME280;8341;42.048;24.650;2022-09-17T08:28:43;96229.81;;;26.39;53.39
16461;BME280;8341;42.048;24.650;2022-09-17T08:31:13;96238.72;;;26.47;51.73
16461;BME280;8341;42.048;24.650;2022-09-17T08:33:40;96234.75;;;26.62;52.72
16461;BME280;8341;42.048;24.650;2022-09-17T08:36:10;96240.47;;;26.76;51.63
16461;BME280;8341;42.048;24.650;2022-09-17T08:38:37;96237.09;;;26.89;52.18
16461;BME280;8341;42.048;24.650;2022-09-17T08:41:17;96230.66;;;26.86;49.18
16461;BME280;8341;42.048;24.650;2022-09-17T08:43:50;96223.69;;;26.76;49.23
16461;BME280;8341;42.048;24.650;2022-09-17T08:46:18;96227.09;;;26.74;48.10
16461;BME280;8341;42.048;24.650;2022-09-17T08:48:49;96238.28;;;26.62;51.03
16461;BME280;8341;42.048;24.650;2022-09-17T08:51:29;96234.63;;;26.60;51.90
16461;BME280;8341;42.048;24.650;2022-09-17T08:54:03;96219.72;;;26.34;52.41
16461;BME280;8341;42.048;24.650;2022-09-17T08:56:36;96219.34;;;26.07;51.98
16461;BME280;8341;42.048;24.650;2022-09-17T08:59:15;96204.31;;;26.12;52.81
16461;BME280;8341;42.048;24.650;2022-09-17T09:01:51;96214.38;;;26.38;51.80
16461;BME280;8341;42.048;24.650;2022-09-17T09:04:45;96213.19;;;26.53;49.89
16461;BME280;8341;42.048;24.650;2022-09-17T09:07:20;96206.19;;;26.75;50.29
16461;BME280;8341;42.048;24.650;2022-09-17T09:09:53;96196.25;;;26.95;50.63
16461;BME280;8341;42.048;24.650;2022-09-17T09:12:30;96189.91;;;27.18;50.67
16461;BME280;8341;42.048;24.650;2022-09-17T09:14:59;96172.50;;;27.31;49.18
16461;BME280;8341;42.048;24.650;2022-09-17T09:17:31;96166.66;;;27.27;49.67
16461;BME280;8341;42.048;24.650;2022-09-17T18:58:03;95984.72;;;19.79;100.00
16461;BME280;8341;42.048;24.650;2022-09-17T19:00:31;95975.47;;;19.84;100.00
16461;BME280;8341;42.048;24.650;2022-09-17T19:02:57;95962.09;;;19.73;100.00
16461;BME280;8341;42.048;24.650;2022-09-17T19:05:24;95934.69;;;19.60;100.00
16461;BME280;8341;42.048;24.650;2022-09-17T19:07:51;95951.53;;;19.79;100.00
16461;BME280;8341;42.048;24.650;2022-09-17T19:10:18;95950.78;;;19.78;99.52
16461;BME280;8341;42.048;24.650;2022-09-17T19:12:44;95939.47;;;19.67;88.83
16461;BME280;8341;42.048;24.650;2022-09-17T19:15:13;95949.44;;;19.87;89.00
16461;BME280;8341;42.048;24.650;2022-09-17T19:20:15;95951.19;;;19.75;95.49
16461;BME280;8341;42.048;24.650;2022-09-17T19:22:44;95952.22;;;19.87;95.46
16461;BME280;8341;42.048;24.650;2022-09-17T19:25:10;95947.88;;;19.76;100.00
16461;BME280;8341;42.048;24.650;2022-09-17T19:27:37;95969.88;;;19.67;100.00
16461;BME280;8341;42.048;24.650;2022-09-17T19:30:05;95986.66;;;19.69;100.00
16461;BME280;8341;42.048;24.650;2022-09-17T19:32:33;95974.19;;;19.53;100.00
16461;BME280;8341;42.048;24.650;2022-09-17T19:35:00;95950.09;;;19.46;95.53
16461;BME280;8341;42.048;24.650;2022-09-17T19:37:27;95948.78;;;19.47;97.72
16461;BME280;8341;42.048;24.650;2022-09-17T19:39:53;95961.97;;;19.63;92.60
16461;BME280;8341;42.048;24.650;2022-09-17T19:42:20;95964.88;;;19.41;100.00
16461;BME280;8341;42.048;24.650;2022-09-17T19:44:47;95976.84;;;19.43;100.00
16461;BME280;8341;42.048;24.650;2022-09-17T19:47:14;95982.75;;;19.40;100.00
16461;BME280;8341;42.048;24.650;2022-09-17T19:49:42;95966.06;;;19.22;100.00
16461;BME280;8341;42.048;24.650;2022-09-17T19:52:11;95989.59;;;19.31;100.00
16461;BME280;8341;42.048;24.650;2022-09-17T19:54:37;95984.38;;;19.03;100.00
16461;BME280;8341;42.048;24.650;2022-09-17T19:57:04;95983.66;;;19.02;100.00
16461;BME280;8341;42.048;24.650;2022-09-17T19:59:31;95994.69;;;19.02;100.00
16461;BME280;8341;42.048;24.650;2022-09-17T20:01:58;96002.06;;;19.00;100.00
16461;BME280;8341;42.048;24.650;2022-09-17T20:04:24;95984.59;;;18.97;100.00
16461;BME280;8341;42.048;24.650;2022-09-17T20:06:53;95972.44;;;18.93;100.00
16461;BME280;8341;42.048;24.650;2022-09-17T20:09:20;95962.50;;;18.97;100.00
16461;BME280;8341;42.048;24.650;2022-09-17T20:11:46;95956.56;;;19.01;100.00
16461;BME280;8341;42.048;24.650;2022-09-17T20:14:13;95957.47;;;19.03;100.00
16461;BME280;8341;42.048;24.650;2022-09-17T20:16:40;95942.72;;;19.08;100.00
16461;BME280;8341;42.048;24.650;2022-09-17T20:19:12;95947.91;;;19.36;92.85
16461;BME280;8341;42.048;24.650;2022-09-17T20:21:40;95956.88;;;19.52;94.73
16461;BME280;8341;42.048;24.650;2022-09-17T20:24:08;95971.44;;;19.77;85.65
16461;BME280;8341;42.048;24.650;2022-09-17T20:26:35;95983.34;;;19.95;84.39
16461;BME280;8341;42.048;24.650;2022-09-17T20:29:02;95994.47;;;19.55;96.78
16461;BME280;8341;42.048;24.650;2022-09-17T20:31:30;95987.84;;;19.11;100.00
16461;BME280;8341;42.048;24.650;2022-09-17T20:33:58;95978.78;;;19.18;100.00
16461;BME280;8341;42.048;24.650;2022-09-17T20:36:27;95979.91;;;19.15;100.00
16461;BME280;8341;42.048;24.650;2022-09-17T20:38:55;96002.56;;;19.13;100.00
16461;BME280;8341;42.048;24.650;2022-09-17T20:41:23;95993.94;;;19.09;100.00
16461;BME280;8341;42.048;24.650;2022-09-17T20:43:52;96000.94;;;19.10;100.00
16461;BME280;8341;42.048;24.650;2022-09-17T20:46:21;95991.34;;;19.11;100.00
16461;BME280;8341;42.048;24.650;2022-09-17T20:48:48;95989.16;;;19.10;100.00
16461;BME280;8341;42.048;24.650;2022-09-17T20:51:18;95997.63;;;19.04;100.00
16461;BME280;8341;42.048;24.650;2022-09-17T20:53:45;95991.94;;;19.02;100.00
16461;BME280;8341;42.048;24.650;2022-09-17T20:56:14;95979.66;;;18.81;100.00
16461;BME280;8341;42.048;24.650;2022-09-17T20:58:43;95974.34;;;18.75;100.00
16461;BME280;8341;42.048;24.650;2022-09-17T21:01:15;95956.56;;;18.46;100.00
16461;BME280;8341;42.048;24.650;2022-09-17T21:03:44;95956.13;;;18.64;100.00
16461;BME280;8341;42.048;24.650;2022-09-17T21:06:15;95966.06;;;18.75;100.00
16461;BME280;8341;42.048;24.650;2022-09-17T21:08:43;95961.13;;;18.66;100.00
16461;BME280;8341;42.048;24.650;2022-09-17T21:11:10;95946.91;;;18.69;100.00
16461;BME280;8341;42.048;24.650;2022-09-17T21:13:38;95952.44;;;18.69;100.00
16461;BME280;8341;42.048;24.650;2022-09-17T21:16:07;95948.63;;;18.57;100.00
16461;BME280;8341;42.048;24.650;2022-09-17T21:18:34;95947.34;;;18.58;100.00
16461;BME280;8341;42.048;24.650;2022-09-17T21:21:02;95949.91;;;18.64;100.00
16461;BME280;8341;42.048;24.650;2022-09-17T21:23:31;95955.44;;;18.56;100.00
16461;BME280;8341;42.048;24.650;2022-09-17T21:26:02;95958.38;;;18.58;100.00
16461;BME280;8341;42.048;24.650;2022-09-17T21:28:30;95960.94;;;18.64;100.00
16461;BME280;8341;42.048;24.650;2022-09-17T21:31:02;95969.41;;;18.66;100.00
16461;BME280;8341;42.048;24.650;2022-09-17T21:33:31;95964.25;;;18.62;100.00
16461;BME280;8341;42.048;24.650;2022-09-17T21:36:03;95972.03;;;18.49;100.00
16461;BME280;8341;42.048;24.650;2022-09-17T21:38:30;95969.63;;;18.38;100.00
16461;BME280;8341;42.048;24.650;2022-09-17T21:40:58;95958.06;;;18.17;100.00
16461;BME280;8341;42.048;24.650;2022-09-17T21:43:26;95956.22;;;18.04;100.00
16461;BME280;8341;42.048;24.650;2022-09-17T21:46:03;95937.47;;;17.87;100.00
16461;BME280;8341;42.048;24.650;2022-09-17T21:48:34;95944.44;;;18.03;100.00
16461;BME280;8341;42.048;24.650;2022-09-17T21:51:02;95944.09;;;18.14;100.00
16461;BME280;8341;42.048;24.650;2022-09-17T21:53:30;95947.03;;;18.01;100.00
16461;BME280;8341;42.048;24.650;2022-09-17T21:56:02;95954.22;;;18.04;100.00
16461;BME280;8341;42.048;24.650;2022-09-17T21:58:29;95956.22;;;18.11;100.00
16461;BME280;8341;42.048;24.650;2022-09-17T22:00:56;95947.59;;;18.15;100.00
16461;BME280;8341;42.048;24.650;2022-09-17T22:03:23;95955.88;;;18.07;100.00
16461;BME280;8341;42.048;24.650;2022-09-17T22:05:51;95961.75;;;17.96;100.00
16461;BME280;8341;42.048;24.650;2022-09-17T22:08:18;95973.69;;;17.91;100.00
16461;BME280;8341;42.048;24.650;2022-09-17T22:10:45;95989.88;;;17.87;100.00
16461;BME280;8341;42.048;24.650;2022-09-17T22:13:11;95984.91;;;17.71;100.00
16461;BME280;8341;42.048;24.650;2022-09-17T22:15:38;95979.03;;;17.74;100.00
16461;BME280;8341;42.048;24.650;2022-09-17T22:18:05;95977.72;;;17.75;100.00
16461;BME280;8341;42.048;24.650;2022-09-17T22:20:32;95973.88;;;17.78;100.00
16461;BME280;8341;42.048;24.650;2022-09-17T22:23:00;95971.31;;;17.88;100.00
16461;BME280;8341;42.048;24.650;2022-09-17T22:25:27;95971.13;;;17.93;100.00
16461;BME280;8341;42.048;24.650;2022-09-17T22:27:54;95969.47;;;17.90;100.00
16461;BME280;8341;42.048;24.650;2022-09-17T22:30:21;95971.47;;;17.82;100.00
16461;BME280;8341;42.048;24.650;2022-09-17T22:32:47;95953.31;;;17.87;100.00
16461;BME280;8341;42.048;24.650;2022-09-17T22:35:14;95948.31;;;17.85;100.00
16461;BME280;8341;42.048;24.650;2022-09-17T22:37:41;95941.53;;;17.86;100.00
16461;BME280;8341;42.048;24.650;2022-09-17T22:40:09;95947.41;;;17.83;100.00
16461;BME280;8341;42.048;24.650;2022-09-17T22:42:36;95945.03;;;17.79;100.00
16461;BME280;8341;42.048;24.650;2022-09-17T22:45:04;95937.47;;;17.65;100.00
16461;BME280;8341;42.048;24.650;2022-09-17T22:47:31;95939.88;;;17.68;100.00
16461;BME280;8341;42.048;24.650;2022-09-17T22:49:58;95922.75;;;17.62;100.00
16461;BME280;8341;42.048;24.650;2022-09-17T22:52:24;95915.97;;;17.56;100.00
16461;BME280;8341;42.048;24.650;2022-09-17T22:54:51;95924.06;;;17.61;100.00
16461;BME280;8341;42.048;24.650;2022-09-17T22:57:19;95927.00;;;17.56;100.00
16461;BME280;8341;42.048;24.650;2022-09-17T22:59:46;95920.31;;;17.36;100.00
16461;BME280;8341;42.048;24.650;2022-09-17T23:02:13;95914.44;;;17.32;100.00
16461;BME280;8341;42.048;24.650;2022-09-17T23:04:39;95925.06;;;17.13;100.00
16461;BME280;8341;42.048;24.650;2022-09-17T23:07:06;95941.81;;;17.30;100.00
16461;BME280;8341;42.048;24.650;2022-09-17T23:09:33;95924.09;;;17.03;100.00
16461;BME280;8341;42.048;24.650;2022-09-17T23:12:01;95947.84;;;17.21;100.00